createdAt,value
2022-12-12T00:01:40.012Z,30.38
2022-12-12T00:04:43.171Z,31.83
2022-12-12T00:07:46.571Z,31.42
2022-12-12T00:10:50.031Z,32.38
2022-12-12T00:13:55.411Z,33.40
2022-12-12T00:16:58.589Z,32.10
2022-12-12T00:20:01.911Z,33.15
2022-12-12T00:23:05.233Z,32.08
2022-12-12T00:26:10.631Z,34.03
2022-12-12T00:29:15.334Z,33.72
2022-12-12T00:32:18.598Z,33.22
2022-12-12T00:35:21.788Z,36.33
2022-12-12T00:38:25.451Z,36.55
2022-12-12T00:41:29.246Z,35.35
2022-12-12T00:44:33.799Z,32.17
2022-12-12T00:47:37.323Z,35.00
2022-12-12T00:50:40.614Z,35.15
2022-12-12T00:53:44.294Z,30.88
2022-12-12T00:56:47.485Z,32.00
2022-12-12T00:59:52.034Z,35.50
2022-12-12T01:02:58.213Z,36.08
2022-12-12T01:06:01.450Z,35.60
2022-12-12T01:09:04.991Z,34.35
2022-12-12T01:12:08.662Z,35.33
2022-12-12T01:15:14.335Z,35.38
2022-12-12T01:18:18.180Z,35.60
2022-12-12T01:21:22.245Z,35.63
2022-12-12T01:24:25.464Z,34.55
2022-12-12T01:27:29.150Z,38.28
2022-12-12T01:30:33.864Z,36.42
2022-12-12T01:33:37.383Z,36.47
2022-12-12T01:36:40.670Z,38.78
2022-12-12T01:39:44.058Z,37.75
2022-12-12T01:42:47.410Z,38.85
2022-12-12T01:46:34.710Z,40.58
2022-12-12T01:49:38.059Z,39.38
2022-12-12T01:52:45.166Z,41.95
2022-12-12T01:55:50.192Z,40.40
2022-12-12T01:58:55.479Z,44.25
2022-12-12T02:02:00.374Z,40.85
2022-12-12T02:05:08.508Z,42.40
2022-12-12T02:08:13.609Z,41.28
2022-12-12T02:11:17.232Z,41.03
2022-12-12T02:14:23.682Z,42.08
2022-12-12T02:17:56.073Z,37.90
2022-12-12T02:21:11.785Z,42.25
2022-12-12T02:24:53.825Z,41.65
2022-12-12T02:28:41.486Z,45.10
2022-12-12T02:31:52.516Z,43.97
2022-12-12T02:35:07.153Z,43.55
2022-12-12T02:38:20.582Z,42.40
2022-12-12T02:41:31.129Z,46.78
2022-12-12T02:44:38.394Z,44.72
2022-12-12T02:47:47.515Z,45.75
2022-12-12T02:50:54.422Z,44.17
2022-12-12T02:54:00.153Z,45.90
2022-12-12T02:57:03.698Z,45.10
2022-12-12T03:00:10.034Z,43.85
2022-12-12T03:03:48.359Z,43.10
2022-12-12T03:07:16.122Z,43.70
2022-12-12T03:10:32.623Z,43.33
2022-12-12T03:13:46.169Z,39.90
2022-12-12T03:17:01.535Z,43.67
2022-12-12T03:20:13.853Z,42.00
2022-12-12T03:23:19.534Z,41.88
2022-12-12T03:26:28.814Z,43.00
2022-12-12T03:29:36.031Z,33.58
2022-12-12T03:32:44.015Z,42.22
2022-12-12T03:35:56.201Z,43.30
2022-12-12T03:39:02.933Z,44.70
2022-12-12T03:42:11.076Z,43.10
2022-12-12T03:45:19.327Z,43.20
2022-12-12T03:48:28.742Z,44.15
2022-12-12T03:51:37.819Z,33.78
2022-12-12T03:54:47.654Z,43.95
2022-12-12T03:57:56.711Z,44.05
2022-12-12T04:01:04.334Z,44.30
2022-12-12T04:04:14.842Z,46.13
2022-12-12T04:07:22.157Z,45.20
2022-12-12T04:10:45.404Z,44.80
2022-12-12T04:14:00.318Z,44.50
2022-12-12T04:17:07.307Z,44.17
2022-12-12T04:20:45.612Z,43.75
2022-12-12T04:24:01.228Z,44.58
2022-12-12T04:27:09.589Z,45.20
2022-12-12T04:30:14.972Z,44.28
2022-12-12T04:33:21.095Z,43.30
2022-12-12T04:36:25.710Z,44.35
2022-12-12T04:39:32.197Z,44.33
2022-12-12T04:42:40.111Z,45.95
2022-12-12T04:45:46.913Z,43.78
2022-12-12T04:48:54.955Z,44.22
2022-12-12T04:52:03.981Z,46.30
2022-12-12T04:55:14.093Z,46.67
2022-12-12T04:58:18.525Z,44.65
2022-12-12T05:01:27.712Z,45.53
2022-12-12T05:04:37.431Z,33.23
2022-12-12T05:07:43.880Z,46.22
2022-12-12T05:10:53.343Z,44.30
2022-12-12T05:13:56.687Z,36.05
2022-12-12T05:17:04.876Z,43.90
2022-12-12T05:20:09.524Z,44.03
2022-12-12T05:23:12.809Z,45.13
2022-12-12T05:26:23.166Z,40.60
2022-12-12T05:29:26.471Z,42.60
2022-12-12T05:32:29.794Z,44.20
2022-12-12T05:35:33.893Z,43.55
2022-12-12T05:38:38.128Z,41.15
2022-12-12T05:41:42.857Z,44.03
2022-12-12T05:44:46.548Z,46.50
2022-12-12T05:47:50.547Z,44.63
2022-12-12T05:50:54.375Z,44.33
2022-12-12T05:53:57.587Z,41.47
2022-12-12T05:57:02.374Z,42.15
2022-12-12T06:00:07.048Z,42.03
2022-12-12T06:03:10.411Z,41.53
2022-12-12T06:06:13.710Z,43.65
2022-12-12T06:09:16.985Z,41.90
2022-12-12T06:12:22.131Z,42.70
2022-12-12T06:15:25.446Z,41.40
2022-12-12T06:18:28.682Z,42.42
2022-12-12T06:21:31.870Z,42.45
2022-12-12T06:24:35.126Z,41.38
2022-12-12T06:27:40.079Z,38.83
2022-12-12T06:30:43.503Z,40.97
2022-12-12T06:33:46.845Z,41.22
2022-12-12T06:36:50.060Z,43.30
2022-12-12T06:39:53.518Z,41.28
2022-12-12T06:42:58.630Z,41.50
2022-12-12T06:46:03.212Z,42.65
2022-12-12T06:49:09.799Z,40.63
2022-12-12T06:52:14.170Z,41.38
2022-12-12T06:55:17.561Z,42.00
2022-12-12T06:58:22.439Z,38.22
2022-12-12T07:01:26.227Z,39.38
2022-12-12T07:04:29.589Z,40.72
2022-12-12T07:07:32.922Z,38.67
2022-12-12T07:10:37.248Z,37.22
2022-12-12T07:13:42.419Z,38.35
2022-12-12T07:16:45.707Z,36.13
2022-12-12T07:19:49.111Z,38.78
2022-12-12T07:22:52.606Z,37.72
2022-12-12T07:25:55.988Z,34.55
2022-12-12T07:29:03.639Z,36.30
2022-12-12T07:32:07.067Z,33.45
2022-12-12T07:35:10.947Z,34.17
2022-12-12T07:38:15.710Z,35.17
2022-12-12T07:41:20.789Z,35.15
2022-12-12T07:44:26.212Z,34.25
2022-12-12T07:47:29.533Z,32.88
2022-12-12T07:50:32.785Z,33.60
2022-12-12T07:53:36.880Z,32.55
2022-12-12T07:56:40.061Z,31.83
2022-12-12T07:59:44.599Z,31.98
2022-12-12T08:02:48.140Z,28.38
2022-12-12T08:05:51.468Z,31.63
2022-12-12T08:08:55.066Z,32.05
2022-12-12T08:11:59.696Z,30.95
2022-12-12T08:15:04.427Z,29.52
2022-12-12T08:18:07.765Z,28.80
2022-12-12T08:21:12.064Z,29.73
2022-12-12T08:24:17.296Z,28.65
2022-12-12T08:27:20.704Z,28.92
2022-12-12T08:30:26.121Z,30.08
2022-12-12T08:33:29.576Z,28.40
2022-12-12T08:36:36.048Z,28.63
2022-12-12T08:39:40.128Z,26.77
2022-12-12T08:42:43.667Z,25.83
2022-12-12T08:45:48.859Z,25.25
2022-12-12T08:48:52.232Z,25.42
2022-12-12T08:51:55.731Z,25.33
2022-12-12T08:54:59.111Z,24.58
2022-12-12T08:58:02.414Z,25.05
2022-12-12T09:01:11.305Z,24.45
2022-12-12T09:04:14.507Z,25.50
2022-12-12T09:07:21.505Z,26.67
2022-12-12T09:10:24.851Z,26.40
2022-12-12T09:13:28.143Z,24.98
2022-12-12T09:16:33.025Z,24.67
2022-12-12T09:19:36.460Z,25.30
2022-12-12T09:22:40.042Z,24.67
2022-12-12T09:25:43.732Z,24.65
2022-12-12T09:28:47.250Z,24.00
2022-12-12T09:31:51.902Z,22.40
2022-12-12T09:34:55.290Z,22.95
2022-12-12T09:37:58.813Z,25.77
2022-12-12T09:41:05.199Z,24.85
2022-12-12T09:44:16.188Z,23.13
2022-12-12T09:47:32.838Z,25.52
2022-12-12T09:50:39.355Z,25.65
2022-12-12T09:53:46.420Z,29.23
2022-12-12T09:57:01.788Z,29.63
2022-12-12T10:00:10.611Z,29.48
2022-12-12T10:03:24.250Z,25.95
2022-12-12T10:06:38.569Z,26.85
2022-12-12T10:09:54.224Z,26.13
2022-12-12T10:12:59.455Z,26.73
2022-12-12T10:16:07.959Z,27.27
2022-12-12T10:19:20.584Z,27.65
2022-12-12T10:22:33.693Z,27.58
2022-12-12T10:25:44.942Z,29.30
2022-12-12T10:28:54.311Z,31.38
2022-12-12T10:32:13.876Z,23.83
2022-12-12T10:35:27.921Z,20.33
2022-12-12T10:38:49.749Z,27.58
2022-12-12T10:41:59.149Z,28.80
2022-12-12T10:45:23.794Z,36.83
2022-12-12T10:48:29.460Z,32.90
2022-12-12T10:51:34.283Z,38.72
2022-12-12T10:54:45.906Z,38.22
2022-12-12T10:58:01.279Z,35.88
2022-12-12T11:01:11.877Z,28.50
2022-12-12T11:04:16.044Z,28.50
2022-12-12T11:07:22.020Z,29.80
2022-12-12T11:10:33.692Z,30.98
2022-12-12T11:13:46.455Z,33.88
2022-12-12T11:16:51.048Z,36.95
2022-12-12T11:19:56.728Z,31.05
2022-12-12T11:23:01.595Z,29.13
2022-12-12T11:26:11.845Z,30.92
2022-12-12T11:32:38.939Z,37.63
2022-12-12T11:35:47.683Z,35.17
2022-12-12T11:38:55.580Z,36.70
2022-12-12T11:42:01.229Z,41.72
2022-12-12T11:45:20.340Z,40.17
2022-12-12T11:48:34.256Z,29.05
2022-12-12T11:51:41.697Z,31.52
2022-12-12T11:54:47.104Z,34.40
2022-12-12T11:58:05.578Z,40.33
2022-12-12T12:01:16.310Z,47.10
2022-12-12T12:04:36.179Z,46.83
2022-12-12T12:07:54.488Z,37.25
2022-12-12T12:11:11.240Z,37.10
2022-12-12T12:14:28.419Z,37.20
2022-12-12T12:17:52.981Z,40.88
2022-12-12T12:21:28.866Z,41.22
2022-12-12T12:24:57.946Z,40.67
2022-12-12T12:28:18.240Z,36.03
2022-12-12T12:34:38.183Z,34.83
2022-12-12T12:37:54.223Z,31.92
2022-12-12T12:41:22.100Z,33.00
2022-12-12T12:44:38.430Z,34.90
2022-12-12T12:47:49.080Z,33.08
2022-12-12T12:50:57.020Z,31.23
2022-12-12T12:54:05.466Z,34.80
2022-12-12T12:57:12.856Z,33.50
2022-12-12T13:00:20.831Z,33.92
2022-12-12T13:03:29.754Z,33.67
2022-12-12T13:06:41.582Z,34.55
2022-12-12T13:09:49.269Z,32.08
2022-12-12T13:12:56.802Z,36.95
2022-12-12T13:16:06.647Z,35.20
2022-12-12T13:19:15.604Z,34.47
2022-12-12T13:22:28.505Z,33.53
2022-12-12T13:25:38.952Z,34.20
2022-12-12T13:28:47.325Z,32.63
2022-12-12T13:32:22.547Z,37.25
2022-12-12T13:35:30.022Z,42.67
2022-12-12T13:38:35.768Z,37.20
2022-12-12T13:41:58.149Z,36.90
2022-12-12T13:45:38.414Z,40.10
2022-12-12T13:51:50.659Z,35.30
2022-12-12T13:54:56.942Z,44.15
2022-12-12T13:58:33.014Z,41.95
2022-12-12T14:01:40.468Z,38.63
2022-12-12T14:04:45.731Z,39.08
2022-12-12T14:07:51.094Z,37.97
2022-12-12T14:10:58.752Z,36.05
2022-12-12T14:14:30.942Z,38.22
2022-12-12T14:17:42.265Z,38.67
2022-12-12T14:20:57.996Z,39.20
2022-12-12T14:24:48.188Z,37.10
2022-12-12T14:28:16.892Z,40.28
2022-12-12T14:31:20.779Z,41.28
2022-12-12T14:34:31.416Z,39.72
2022-12-12T14:37:51.212Z,42.75
2022-12-12T14:44:36.928Z,39.83
2022-12-12T14:47:27.258Z,38.88
2022-12-12T14:50:30.871Z,38.28
2022-12-12T14:53:46.612Z,41.47
2022-12-12T14:56:53.193Z,40.58
2022-12-12T14:59:57.537Z,41.60
2022-12-12T15:03:02.108Z,41.92
2022-12-12T15:06:42.114Z,45.53
2022-12-12T15:09:50.096Z,45.92
2022-12-12T15:12:53.538Z,46.55
2022-12-12T15:15:57.060Z,46.33
2022-12-12T15:19:01.091Z,48.60
2022-12-12T15:22:10.539Z,46.28
2022-12-12T15:25:18.856Z,50.08
2022-12-12T15:28:24.818Z,49.15
2022-12-12T15:31:28.799Z,51.85
2022-12-12T15:34:38.915Z,51.75
2022-12-12T15:37:43.245Z,52.90
2022-12-12T15:40:53.306Z,65.15
2022-12-12T15:43:57.186Z,58.65
2022-12-12T15:47:01.276Z,60.67
2022-12-12T15:50:08.706Z,53.88
2022-12-12T15:53:20.946Z,54.35
2022-12-12T15:56:28.950Z,55.78
2022-12-12T15:59:34.270Z,59.72
2022-12-12T16:02:38.473Z,52.88
2022-12-12T16:05:42.112Z,54.90
2022-12-12T16:08:48.762Z,52.70
2022-12-12T16:11:54.414Z,59.95
2022-12-12T16:14:58.310Z,60.97
2022-12-12T16:18:03.672Z,52.28
2022-12-12T16:21:06.948Z,50.95
2022-12-12T16:24:22.119Z,53.25
2022-12-12T16:27:27.056Z,53.58
2022-12-12T16:30:30.724Z,48.65
2022-12-12T16:33:35.919Z,47.33
2022-12-12T16:36:42.438Z,47.42
2022-12-12T16:39:46.415Z,46.42
2022-12-12T16:43:03.646Z,47.92
2022-12-12T16:46:18.864Z,47.17
2022-12-12T16:49:22.575Z,44.10
2022-12-12T16:52:26.096Z,41.28
2022-12-12T16:55:29.751Z,41.60
2022-12-12T16:58:34.653Z,43.45
2022-12-12T17:01:39.171Z,45.13
2022-12-12T17:04:42.705Z,43.08
2022-12-12T17:07:46.477Z,42.67
2022-12-12T17:10:53.352Z,42.58
2022-12-12T17:14:21.096Z,42.70
2022-12-12T17:17:24.793Z,40.65
2022-12-12T17:20:37.835Z,41.42
2022-12-12T17:23:41.829Z,41.38
2022-12-12T17:26:45.244Z,42.97
2022-12-12T17:29:49.953Z,43.92
2022-12-12T17:36:15.125Z,44.15
2022-12-12T17:39:18.501Z,45.40
2022-12-12T17:42:21.781Z,42.13
2022-12-12T17:45:26.545Z,44.15
2022-12-12T17:48:31.235Z,42.30
2022-12-12T17:51:36.387Z,46.90
2022-12-12T17:54:39.877Z,45.92
2022-12-12T17:57:43.525Z,46.63
2022-12-12T18:00:48.423Z,44.60
2022-12-12T18:03:53.241Z,50.03
2022-12-12T18:06:56.623Z,51.10
2022-12-12T18:09:59.951Z,45.10
2022-12-12T18:13:03.445Z,47.83
2022-12-12T18:16:11.725Z,42.67
2022-12-12T18:19:15.585Z,52.17
2022-12-12T18:22:19.760Z,47.72
2022-12-12T18:25:25.042Z,44.67
2022-12-12T18:28:34.016Z,46.90
2022-12-12T18:31:41.788Z,47.75
2022-12-12T18:34:48.089Z,49.40
2022-12-12T18:37:57.054Z,52.17
2022-12-12T18:41:04.838Z,51.22
2022-12-12T18:44:09.412Z,48.55
2022-12-12T18:47:14.111Z,42.25
2022-12-12T18:50:17.551Z,42.60
2022-12-12T18:53:20.962Z,42.70
2022-12-12T18:56:26.904Z,46.65
2022-12-12T18:59:30.463Z,43.78
2022-12-12T19:02:38.391Z,46.50
2022-12-12T19:05:43.494Z,44.83
2022-12-12T19:08:47.438Z,44.60
2022-12-12T19:11:58.286Z,45.42
2022-12-12T19:15:16.817Z,49.15
2022-12-12T19:18:22.355Z,43.80
2022-12-12T19:21:29.548Z,42.00
2022-12-12T19:24:33.057Z,41.60
2022-12-12T19:27:36.279Z,39.88
2022-12-12T19:30:42.561Z,37.95
2022-12-12T19:33:47.927Z,38.10
2022-12-12T19:36:52.579Z,39.72
2022-12-12T19:39:56.967Z,40.70
2022-12-12T19:43:00.256Z,41.38
2022-12-12T19:46:06.679Z,38.30
2022-12-12T19:49:13.698Z,42.70
2022-12-12T19:52:17.597Z,45.83
2022-12-12T19:55:20.982Z,45.47
2022-12-12T19:58:24.387Z,41.13
2022-12-12T20:01:29.553Z,38.08
2022-12-12T20:04:34.950Z,38.35
2022-12-12T20:07:38.972Z,36.97
2022-12-12T20:10:42.412Z,35.90
2022-12-12T20:13:50.085Z,35.28
2022-12-12T20:16:55.490Z,36.97
2022-12-12T20:20:00.613Z,36.78
2022-12-12T20:23:04.056Z,38.05
2022-12-12T20:26:09.122Z,37.78
2022-12-12T20:29:13.584Z,39.58
2022-12-12T20:32:16.997Z,36.22
2022-12-12T20:35:21.972Z,33.13
2022-12-12T20:38:26.720Z,36.38
2022-12-12T20:41:31.676Z,30.63
2022-12-12T20:44:35.076Z,28.52
2022-12-12T20:47:38.468Z,28.27
2022-12-12T20:50:43.348Z,30.38
2022-12-12T20:53:49.247Z,30.55
2022-12-12T20:56:52.806Z,32.17
2022-12-12T20:59:56.131Z,26.55
2022-12-12T21:03:00.416Z,30.25
2022-12-12T21:06:12.485Z,30.05
2022-12-12T21:09:24.548Z,29.45
2022-12-12T21:12:29.016Z,29.63
2022-12-12T21:15:32.515Z,28.25
2022-12-12T21:18:35.962Z,32.08
2022-12-12T21:21:42.317Z,33.10
2022-12-12T21:24:45.611Z,26.25
2022-12-12T21:27:48.925Z,28.35
2022-12-12T21:30:53.106Z,28.17
2022-12-12T21:33:57.110Z,25.73
2022-12-12T21:37:02.342Z,27.48
2022-12-12T21:40:06.729Z,26.58
2022-12-12T21:43:10.329Z,26.63
2022-12-12T21:46:16.900Z,27.80
2022-12-12T21:49:31.151Z,27.52
2022-12-12T21:52:36.281Z,22.88
2022-12-12T21:55:41.183Z,26.20
2022-12-12T21:58:46.551Z,27.05
2022-12-12T22:01:49.826Z,25.67
2022-12-12T22:04:53.141Z,27.40
2022-12-12T22:07:57.942Z,28.55
2022-12-12T22:11:01.262Z,26.13
2022-12-12T22:14:05.156Z,24.13
2022-12-12T22:17:08.662Z,24.05
2022-12-12T22:20:12.886Z,23.38
2022-12-12T22:23:17.702Z,22.90
2022-12-12T22:26:23.593Z,22.52
2022-12-12T22:29:26.957Z,25.02
2022-12-12T22:32:30.336Z,23.98
2022-12-12T22:35:33.678Z,21.65
2022-12-12T22:38:39.007Z,23.10
2022-12-12T22:41:42.512Z,21.20
2022-12-12T22:44:45.939Z,21.17
2022-12-12T22:47:49.396Z,22.45
2022-12-12T22:50:52.724Z,20.25
2022-12-12T22:53:59.098Z,22.40
2022-12-12T22:57:02.759Z,21.35
2022-12-12T23:00:10.483Z,21.30
2022-12-12T23:03:13.830Z,20.08
2022-12-12T23:06:19.729Z,20.17
2022-12-12T23:09:26.288Z,17.73
2022-12-12T23:12:30.012Z,19.30
2022-12-12T23:15:33.633Z,20.52
2022-12-12T23:18:38.259Z,20.30
2022-12-12T23:21:41.867Z,19.85
2022-12-12T23:24:46.788Z,20.05
2022-12-12T23:27:50.126Z,20.33
2022-12-12T23:30:53.572Z,21.55
2022-12-12T23:33:58.648Z,20.20
2022-12-12T23:37:02.064Z,20.15
2022-12-12T23:40:08.028Z,19.67
2022-12-12T23:43:11.482Z,21.48
2022-12-12T23:46:28.306Z,21.48
2022-12-12T23:49:31.781Z,21.83
2022-12-12T23:52:35.027Z,22.77
2022-12-12T23:55:39.728Z,20.30
2022-12-12T23:58:44.058Z,23.00
